Time;durP1;ratioP1;P1;durP2;ratioP2;P2;SDS_P1;SDS_P2;PMS_P1;PMS_P2;Temp;Humidity;BMP_temperature;BMP_pressure;BME280_temperature;BME280_humidity;BME280_pressure;Samples;Min_cycle;Max_cycle;Signal;HPM_P1;HPM_P2
2022/03/03 00:02:21;;;;;;;;;81.00;66.50;;;;;8.71;100.00;101389.19;4927469;28;44638;-87
2022/03/03 00:04:46;;;;;;;;;80.25;61.25;;;;;8.68;100.00;101384.03;4947220;28;45029;-88
2022/03/03 00:07:12;;;;;;;;;81.50;65.00;;;;;8.68;100.00;101379.59;4915852;28;44924;-87
2022/03/03 00:09:37;;;;;;;;;83.50;68.25;;;;;8.66;100.00;101375.31;4942559;28;45571;-87
2022/03/03 00:12:03;;;;;;;;;82.25;67.00;;;;;8.65;100.00;101373.59;4942882;28;45286;-89
2022/03/03 00:14:28;;;;;;;;;88.50;69.75;;;;;8.67;100.00;101382.34;4942402;28;45230;-89
2022/03/03 00:16:54;;;;;;;;;84.25;71.75;;;;;8.67;100.00;101377.03;4943277;28;45434;-88
2022/03/03 00:19:19;;;;;;;;;79.00;67.00;;;;;8.66;100.00;101375.31;4949983;28;45116;-86
2022/03/03 00:21:45;;;;;;;;;76.25;66.75;;;;;8.66;100.00;101370.03;4934775;28;44817;-86
2022/03/03 00:24:10;;;;;;;;;83.25;67.00;;;;;8.66;100.00;101370.88;4955295;28;44700;-88
2022/03/03 00:26:35;;;;;;;;;80.75;62.75;;;;;8.67;100.00;101375.25;4952880;28;44843;-86
2022/03/03 00:29:01;;;;;;;;;83.00;69.00;;;;;8.64;100.00;101374.53;4954778;28;45537;-87
2022/03/03 00:31:26;;;;;;;;;82.75;69.50;;;;;8.63;100.00;101378.13;4957524;28;44697;-87
2022/03/03 00:33:51;;;;;;;;;75.75;63.75;;;;;8.63;100.00;101381.63;4958409;28;45124;-87
2022/03/03 00:36:17;;;;;;;;;84.50;70.00;;;;;8.61;100.00;101372.03;4959614;28;44743;-86
2022/03/03 00:38:43;;;;;;;;;81.25;66.25;;;;;8.61;100.00;101374.69;4956791;28;44920;-86
2022/03/03 00:41:09;;;;;;;;;84.50;75.50;;;;;8.61;100.00;101380.00;4957944;28;44743;-85
2022/03/03 00:43:36;;;;;;;;;89.25;77.00;;;;;8.63;100.00;101375.47;4954147;28;44792;-87
2022/03/03 00:46:01;;;;;;;;;93.50;78.00;;;;;8.64;100.00;101382.47;4935448;28;44871;-88
2022/03/03 00:48:26;;;;;;;;;81.50;70.25;;;;;8.64;100.00;101382.47;4954986;28;45002;-88
2022/03/03 00:50:52;;;;;;;;;85.75;74.50;;;;;8.63;100.00;101378.97;4932580;28;44890;-88
2022/03/03 00:53:17;;;;;;;;;79.50;67.00;;;;;8.62;100.00;101371.09;4932444;28;45371;-88
2022/03/03 00:55:42;;;;;;;;;83.25;69.00;;;;;8.64;100.00;101379.81;4950873;28;44866;-86
2022/03/03 00:58:09;;;;;;;;;84.25;71.25;;;;;8.63;100.00;101376.31;4951490;28;46118;-88
2022/03/03 01:00:35;;;;;;;;;82.75;67.50;;;;;8.62;100.00;101379.91;4947020;28;45270;-87
2022/03/03 01:03:00;;;;;;;;;83.00;66.25;;;;;8.61;100.00;101377.34;4948366;28;44850;-87
2022/03/03 01:05:26;;;;;;;;;85.75;74.50;;;;;8.62;100.00;101379.06;4929825;28;45373;-88
2022/03/03 01:07:51;;;;;;;;;81.25;68.75;;;;;8.63;100.00;101388.69;4944695;28;44987;-88
2022/03/03 01:10:17;;;;;;;;;83.50;63.50;;;;;8.62;100.00;101387.84;4939192;28;44817;-88
2022/03/03 01:12:42;;;;;;;;;79.50;67.75;;;;;8.60;100.00;101373.81;4941047;28;44798;-88
2022/03/03 01:15:09;;;;;;;;;80.00;60.75;;;;;8.60;100.00;101389.69;4940763;28;44806;-88
2022/03/03 01:17:35;;;;;;;;;76.50;65.50;;;;;8.60;100.00;101380.91;4941311;28;45170;-88
2022/03/03 01:20:01;;;;;;;;;82.25;72.00;;;;;8.59;100.00;101379.19;4940203;28;44710;-88
2022/03/03 01:22:26;;;;;;;;;81.25;63.50;;;;;8.60;100.00;101378.25;4941178;28;45271;-89
2022/03/03 01:24:51;;;;;;;;;80.50;68.25;;;;;8.57;100.00;101379.28;4938610;28;44926;-87
2022/03/03 01:27:17;;;;;;;;;78.50;66.25;;;;;8.57;100.00;101375.75;4939222;28;45764;-88
2022/03/03 01:29:43;;;;;;;;;83.50;70.75;;;;;8.57;100.00;101370.47;4938577;28;44734;-88
2022/03/03 01:32:09;;;;;;;;;80.25;68.00;;;;;8.54;100.00;101373.25;4923352;28;45223;-89
2022/03/03 01:34:35;;;;;;;;;84.75;66.75;;;;;8.55;100.00;101370.53;4948528;28;44931;-87
2022/03/03 01:37:01;;;;;;;;;82.00;66.50;;;;;8.55;100.00;101367.88;4958722;28;46603;-85
2022/03/03 01:39:26;;;;;;;;;83.25;67.75;;;;;8.55;100.00;101365.22;4956046;28;45084;-87
2022/03/03 01:41:52;;;;;;;;;85.75;70.25;;;;;8.54;100.00;101358.22;4930192;28;45575;-87
2022/03/03 01:44:17;;;;;;;;;78.50;65.50;;;;;8.54;100.00;101355.56;4944797;28;44986;-87
2022/03/03 01:46:51;;;;;;;;;86.00;70.00;;;;;8.55;100.00;101356.44;4943250;28;45210;-87
2022/03/03 01:49:16;;;;;;;;;84.75;71.50;;;;;8.57;100.00;101357.22;4927318;28;45509;-88
2022/03/03 01:51:43;;;;;;;;;86.00;71.75;;;;;8.60;100.00;101368.50;4944833;28;45280;-86
2022/03/03 01:54:08;;;;;;;;;85.25;67.25;;;;;8.64;100.00;101361.28;4946170;28;44839;-86
2022/03/03 01:56:34;;;;;;;;;82.50;72.25;;;;;8.69;100.00;101357.47;4947875;28;45340;-87
2022/03/03 01:59:00;;;;;;;;;80.00;66.75;;;;;8.72;100.00;101359.97;4948069;28;45269;-86
2022/03/03 02:01:26;;;;;;;;;84.50;67.75;;;;;8.77;100.00;101350.94;4982504;28;44758;-86
2022/03/03 02:03:52;;;;;;;;;81.50;64.00;;;;;8.78;100.00;101345.56;4985163;28;44841;-86
2022/03/03 02:06:17;;;;;;;;;81.50;67.50;;;;;8.81;100.00;101342.78;4984477;28;44864;-87
2022/03/03 02:08:43;;;;;;;;;82.25;70.50;;;;;8.83;100.00;101345.34;4984892;28;44728;-86
2022/03/03 02:11:09;;;;;;;;;79.00;67.50;;;;;8.88;100.00;101345.97;4978148;28;44774;-86
2022/03/03 02:13:36;;;;;;;;;88.25;73.25;;;;;8.92;100.00;101352.84;4973586;28;44739;-87
2022/03/03 02:16:02;;;;;;;;;83.00;72.50;;;;;8.95;100.00;101350.91;4970451;28;45402;-87
2022/03/03 02:18:27;;;;;;;;;82.00;70.00;;;;;8.98;100.00;101349.88;4968361;28;44835;-86
2022/03/03 02:20:53;;;;;;;;;84.50;69.75;;;;;9.02;100.00;101346.13;4973422;28;45331;-86
2022/03/03 02:23:18;;;;;;;;;82.75;73.00;;;;;9.06;100.00;101347.69;4971556;28;44811;-85
2022/03/03 02:25:45;;;;;;;;;82.25;69.50;;;;;9.08;100.00;101351.09;4950624;28;45025;-85
2022/03/03 02:28:13;;;;;;;;;84.50;72.00;;;;;9.11;100.00;101344.81;4977025;28;44728;-86
2022/03/03 02:30:39;;;;;;;;;83.75;68.75;;;;;9.14;100.00;101348.16;4973833;28;45343;-86
2022/03/03 02:33:04;;;;;;;;;79.50;63.50;;;;;9.18;100.00;101344.41;4973544;28;45491;-86
2022/03/03 02:35:30;;;;;;;;;75.75;59.75;;;;;9.23;100.00;101347.69;4973250;28;46330;-87
2022/03/03 02:37:55;;;;;;;;;80.50;69.75;;;;;9.25;100.00;101343.16;4960733;28;45332;-86
2022/03/03 02:40:21;;;;;;;;;79.00;65.50;;;;;9.29;100.00;101343.03;4977826;28;44825;-87
2022/03/03 02:42:53;;;;;;;;;82.00;69.50;;;;;9.29;100.00;101343.88;4979091;28;44800;-86
2022/03/03 02:45:20;;;;;;;;;82.25;66.50;;;;;9.32;100.00;101340.19;4978221;28;45234;-85
2022/03/03 02:47:47;;;;;;;;;78.00;65.00;;;;;9.32;100.00;101332.22;4971729;28;44763;-87
2022/03/03 02:50:14;;;;;;;;;79.50;65.50;;;;;9.34;100.00;101336.53;4973285;28;45280;-87
2022/03/03 02:52:40;;;;;;;;;78.00;64.75;;;;;9.36;100.00;101333.78;4956525;28;44925;-86
2022/03/03 02:55:06;;;;;;;;;79.50;67.50;;;;;9.39;100.00;101336.28;4969976;28;44958;-86
2022/03/03 03:00:16;;;;;;;;;79.25;67.00;;;;;9.39;100.00;101320.38;4971222;28;44712;-88
2022/03/03 03:02:42;;;;;;;;;79.75;64.75;;;;;9.39;100.00;101321.25;4971545;28;44915;-86
2022/03/03 03:05:08;;;;;;;;;78.75;64.50;;;;;9.39;100.00;101320.38;4972328;28;45445;-88
2022/03/03 03:07:34;;;;;;;;;78.75;67.25;;;;;9.37;100.00;101319.59;4967744;28;45436;-87
2022/03/03 03:09:59;;;;;;;;;81.75;71.00;;;;;9.36;100.00;101320.53;4951530;28;45101;-87
2022/03/03 03:12:25;;;;;;;;;83.25;73.75;;;;;9.35;100.00;101311.72;4952723;28;44933;-87
2022/03/03 03:14:50;;;;;;;;;78.50;65.25;;;;;9.37;100.00;101309.84;4972675;28;45129;-86
2022/03/03 03:17:17;;;;;;;;;81.00;69.50;;;;;9.41;100.00;101305.25;4971706;28;44744;-86
2022/03/03 03:19:42;;;;;;;;;86.00;68.25;;;;;9.43;100.00;101304.22;4951601;28;45466;-88
2022/03/03 03:22:08;;;;;;;;;80.75;68.00;;;;;9.45;100.00;101304.16;4963930;28;44771;-87
2022/03/03 03:24:33;;;;;;;;;78.25;63.25;;;;;9.45;100.00;101297.03;4961456;28;45175;-87
2022/03/03 03:26:59;;;;;;;;;81.25;70.75;;;;;9.44;100.00;101295.34;4962415;28;45312;-87
2022/03/03 03:29:24;;;;;;;;;82.00;66.00;;;;;9.44;100.00;101289.19;4944323;28;45856;-86
2022/03/03 03:31:50;;;;;;;;;75.25;62.75;;;;;9.46;100.00;101295.25;4963580;28;44806;-87
2022/03/03 03:34:15;;;;;;;;;77.50;66.25;;;;;9.44;100.00;101284.72;4964006;28;45017;-88
2022/03/03 03:36:41;;;;;;;;;81.00;67.00;;;;;9.42;100.00;101286.59;4959044;28;44815;-87
2022/03/03 03:39:06;;;;;;;;;76.75;66.25;;;;;9.43;100.00;101287.47;4942537;28;44753;-88
2022/03/03 03:41:32;;;;;;;;;82.00;65.25;;;;;9.43;100.00;101285.66;4942413;28;45259;-87
2022/03/03 03:43:58;;;;;;;;;80.75;65.00;;;;;9.45;100.00;101278.47;4959413;28;46973;-85
2022/03/03 03:46:24;;;;;;;;;77.75;66.75;;;;;9.44;100.00;101276.78;4965758;28;45171;-88
2022/03/03 03:48:49;;;;;;;;;74.00;56.25;;;;;9.44;100.00;101274.13;4966931;28;44958;-87
2022/03/03 03:51:16;;;;;;;;;78.00;67.00;;;;;9.43;100.00;101280.38;4966600;28;45462;-88
2022/03/03 03:53:42;;;;;;;;;81.00;68.75;;;;;9.45;100.00;101274.97;4962200;28;45283;-87
2022/03/03 03:56:08;;;;;;;;;78.50;63.50;;;;;9.45;100.00;101272.31;4942952;28;45387;-86
2022/03/03 03:58:33;;;;;;;;;80.25;65.50;;;;;9.45;100.00;101277.63;4954834;28;45341;-88
2022/03/03 04:00:59;;;;;;;;;78.25;63.25;;;;;9.47;100.00;101265.97;4941557;28;44907;-87
2022/03/03 04:03:24;;;;;;;;;75.75;63.50;;;;;9.47;100.00;101263.31;4948869;28;45188;-86
2022/03/03 04:05:50;;;;;;;;;75.00;58.50;;;;;9.51;100.00;101267.53;4943783;28;45223;-86
2022/03/03 04:08:15;;;;;;;;;71.25;55.25;;;;;9.53;100.00;101264.81;4941509;28;45304;-88
2022/03/03 04:10:41;;;;;;;;;77.00;60.75;;;;;9.52;100.00;101260.44;4924543;28;45002;-88
2022/03/03 04:13:06;;;;;;;;;77.00;64.25;;;;;9.53;100.00;101262.16;4941479;28;46841;-88
2022/03/03 04:15:32;;;;;;;;;77.00;59.75;;;;;9.55;100.00;101262.06;4943716;28;44739;-88
2022/03/03 04:17:57;;;;;;;;;81.25;62.50;;;;;9.55;100.00;101257.63;4942210;28;45208;-88
2022/03/03 04:20:24;;;;;;;;;76.67;62.33;;;;;9.54;100.00;101245.31;4927057;28;45550;-87
2022/03/03 04:22:50;;;;;;;;;83.25;65.00;;;;;9.55;100.00;101247.00;4946500;28;45171;-86
2022/03/03 04:25:16;;;;;;;;;76.75;60.25;;;;;9.58;100.00;101246.00;4947534;28;45421;-87
2022/03/03 04:27:41;;;;;;;;;75.25;58.75;;;;;9.58;100.00;101251.31;4926731;28;45337;-87
2022/03/03 04:30:09;;;;;;;;;75.33;59.00;;;;;9.58;100.00;101244.19;4942986;28;44911;-87
2022/03/03 04:32:38;;;;;;;;;70.75;56.00;;;;;9.58;100.00;101241.56;4940400;28;45148;-88
2022/03/03 04:35:04;;;;;;;;;77.00;63.00;;;;;9.60;100.00;101234.34;4923023;28;44779;-86
2022/03/03 04:37:29;;;;;;;;;69.33;55.67;;;;;9.62;100.00;101231.59;4942432;28;45321;-87
2022/03/03 04:39:55;;;;;;;;;69.00;55.67;;;;;9.62;100.00;101228.94;4926004;28;45317;-88
2022/03/03 04:42:20;;;;;;;;;72.33;56.33;;;;;9.64;100.00;101230.59;4943060;28;46521;-87
2022/03/03 04:44:46;;;;;;;;;77.67;56.00;;;;;9.64;100.00;101227.09;4946894;28;45363;-86
2022/03/03 04:47:11;;;;;;;;;20.33;3.00;;;;;9.63;100.00;101228.03;4949727;28;45157;-86
2022/03/03 04:49:37;;;;;;;;;71.00;54.00;;;;;9.63;100.00;101236.00;4933783;28;45018;-86
2022/03/03 04:52:03;;;;;;;;;71.33;55.67;;;;;9.62;100.00;101223.66;4948094;28;45184;-87
2022/03/03 04:54:28;;;;;;;;;71.67;55.00;;;;;9.65;100.00;101226.13;4951650;28;44711;-84
2022/03/03 04:56:55;;;;;;;;;68.33;54.00;;;;;9.64;100.00;101216.47;4957520;28;45306;-86
2022/03/03 04:59:23;;;;;;;;;65.00;52.00;;;;;9.65;100.00;101219.03;4974522;28;44902;-87
2022/03/03 05:01:49;;;;;;;;;73.33;54.67;;;;;9.67;100.00;101216.28;4966332;28;47124;-84
2022/03/03 05:04:14;;;;;;;;;73.33;56.33;;;;;9.70;100.00;101213.47;4971806;28;44783;-88
2022/03/03 05:06:40;;;;;;;;;70.67;55.00;;;;;9.70;100.00;101216.13;4956504;28;44776;-88
2022/03/03 05:09:05;;;;;;;;;67.33;53.00;;;;;9.69;100.00;101222.38;4971849;28;44939;-87
2022/03/03 05:11:30;;;;;;;;;65.67;52.33;;;;;9.67;100.00;101222.47;4964085;28;45172;-87
2022/03/03 05:13:56;;;;;;;;;66.00;52.00;;;;;9.67;100.00;101217.16;4968142;28;44770;-87
2022/03/03 05:16:22;;;;;;;;;65.67;51.00;;;;;9.66;100.00;101215.44;4967357;28;44791;-88
2022/03/03 05:18:47;;;;;;;;;71.67;54.00;;;;;9.67;100.00;101216.28;4952084;28;44939;-87
2022/03/03 05:21:13;;;;;;;;;66.67;52.33;;;;;9.66;100.00;101212.78;4966589;28;44865;-86
2022/03/03 05:23:38;;;;;;;;;69.00;53.33;;;;;9.68;100.00;101215.38;4963937;28;44816;-88
2022/03/03 05:26:04;;;;;;;;;65.33;51.67;;;;;9.66;100.00;101219.88;4965972;28;45414;-86
2022/03/03 05:28:29;;;;;;;;;66.67;51.67;;;;;9.66;100.00;101211.94;4973032;28;44712;-87
2022/03/03 05:30:54;;;;;;;;;68.00;53.00;;;;;9.66;100.00;101207.47;4972485;28;45092;-88
2022/03/03 05:33:20;;;;;;;;;67.33;51.67;;;;;9.67;100.00;101214.53;4955518;28;44841;-86
2022/03/03 05:35:48;;;;;;;;;65.00;49.67;;;;;9.68;100.00;101213.56;4968200;28;44762;-87
2022/03/03 05:38:13;;;;;;;;;61.33;48.33;;;;;9.68;100.00;101210.91;4967234;28;45248;-85
2022/03/03 05:40:38;;;;;;;;;67.00;50.67;;;;;9.69;100.00;101211.78;4964704;28;46696;-87
2022/03/03 05:43:04;;;;;;;;;58.00;44.33;;;;;9.70;100.00;101214.31;4963433;28;44850;-86
2022/03/03 05:45:33;;;;;;;;;63.67;49.33;;;;;9.70;100.00;101214.31;4948509;28;45458;-87
2022/03/03 05:48:00;;;;;;;;;66.33;50.33;;;;;9.69;100.00;101209.13;4965137;28;44834;-86
2022/03/03 05:50:26;;;;;;;;;60.33;46.33;;;;;9.68;100.00;101216.22;4965142;28;45348;-86
2022/03/03 05:52:52;;;;;;;;;60.67;48.33;;;;;9.69;100.00;101228.53;4965294;28;45317;-86
2022/03/03 05:55:18;;;;;;;;;65.00;50.33;;;;;9.69;100.00;101228.53;4964030;28;44697;-86
2022/03/03 05:57:45;;;;;;;;;65.00;50.67;;;;;9.72;100.00;101222.22;4962965;28;45652;-87
2022/03/03 06:00:13;;;;;;;;;59.33;46.00;;;;;9.72;100.00;101225.72;4949117;28;46560;-86
2022/03/03 06:02:48;;;;;;;;;67.33;48.00;;;;;9.72;100.00;101223.06;4953411;28;44858;-87
2022/03/03 06:05:17;;;;;;;;;60.00;46.33;;;;;9.74;100.00;101222.97;4974445;28;44795;-90
2022/03/03 06:07:45;;;;;;;;;58.67;46.33;;;;;9.74;100.00;101217.69;4970972;28;44746;-87
2022/03/03 06:10:13;;;;;;;;;57.67;47.67;;;;;9.76;100.00;101221.09;4953578;28;45329;-88
2022/03/03 06:12:51;;;;;;;;;63.00;48.33;;;;;9.75;100.00;101224.69;4965528;28;44919;-88
2022/03/03 06:15:21;;;;;;;;;57.00;45.00;;;;;9.76;100.00;101227.25;4945788;28;45297;-88
2022/03/03 06:17:48;;;;;;;;;63.33;50.00;;;;;9.75;100.00;101222.88;4966471;28;44826;-87
2022/03/03 06:20:15;;;;;;;;;60.67;45.67;;;;;9.76;100.00;101223.75;4975932;28;45032;-86
2022/03/03 06:22:42;;;;;;;;;61.00;48.33;;;;;9.77;100.00;101228.13;4973624;28;44783;-90
2022/03/03 06:25:08;;;;;;;;;64.00;48.00;;;;;9.76;100.00;101221.09;4969897;28;44862;-88
2022/03/03 06:27:34;;;;;;;;;62.67;48.00;;;;;9.77;100.00;101230.78;4969389;28;45267;-89
2022/03/03 06:29:59;;;;;;;;;60.00;48.33;;;;;9.78;100.00;101227.19;4969331;28;45372;-91
2022/03/03 06:32:25;;;;;;;;;61.33;48.00;;;;;9.79;100.00;101234.19;4969448;28;45322;-90
2022/03/03 06:34:51;;;;;;;;;61.33;49.00;;;;;9.79;100.00;101229.75;4964698;28;45247;-90
2022/03/03 06:37:16;;;;;;;;;60.00;46.33;;;;;9.81;100.00;101234.09;4949111;28;45481;-88
2022/03/03 06:39:42;;;;;;;;;57.67;45.67;;;;;9.84;100.00;101234.78;4948975;28;45325;-88
2022/03/03 06:42:08;;;;;;;;;56.00;45.33;;;;;9.87;100.00;101234.63;4966331;28;45447;-88
2022/03/03 06:44:34;;;;;;;;;61.00;47.00;;;;;9.88;100.00;101238.13;4962393;28;45323;-88
2022/03/03 06:47:00;;;;;;;;;61.00;47.33;;;;;9.87;100.00;101239.94;4966026;28;44912;-89
2022/03/03 06:49:26;;;;;;;;;61.67;48.33;;;;;9.89;100.00;101239.84;4947940;28;47777;-88
2022/03/03 06:51:57;;;;;;;;;65.67;52.00;;;;;9.88;100.00;101240.78;4964253;28;44706;-90
2022/03/03 06:54:23;;;;;;;;;63.67;50.00;;;;;9.92;100.00;101245.00;4949831;28;44797;-88
2022/03/03 06:56:55;;;;;;;;;60.67;48.00;;;;;9.95;100.00;101247.44;4952287;28;44948;-88
2022/03/03 06:59:27;;;;;;;;;55.33;45.33;;;;;9.98;100.00;101248.16;4955490;28;45516;-88
2022/03/03 07:01:55;;;;;;;;;58.00;47.33;;;;;10.03;100.00;101248.75;4950569;28;44812;-88
2022/03/03 07:04:24;;;;;;;;;59.00;46.33;;;;;10.04;100.00;101245.13;4965184;28;45370;-89
2022/03/03 07:06:50;;;;;;;;;58.67;46.00;;;;;10.06;100.00;101247.72;4949902;28;44811;-89
2022/03/03 07:09:18;;;;;;;;;57.33;47.67;;;;;10.10;100.00;101245.72;4966080;28;46257;-89
2022/03/03 07:11:46;;;;;;;;;59.00;45.00;;;;;10.15;100.00;101239.22;4966508;28;44656;-89
2022/03/03 07:14:12;;;;;;;;;52.33;41.00;;;;;10.18;100.00;101241.69;4967216;28;44791;-90
2022/03/03 07:16:42;;;;;;;;;49.33;41.00;;;;;10.19;100.00;101243.41;4949066;28;45455;-90
2022/03/03 07:19:26;;;;;;;;;58.67;47.67;;;;;10.26;100.00;101241.31;4963487;28;46696;-89
2022/03/03 07:22:31;;;;;;;;;62.00;47.00;;;;;10.31;100.00;101247.22;4946462;28;44827;-89
2022/03/03 07:25:18;;;;;;;;;58.00;46.67;;;;;10.34;100.00;101248.81;4962346;28;45226;-89
2022/03/03 07:27:45;;;;;;;;;58.33;45.33;;;;;10.35;100.00;101243.44;4943709;28;44892;-89
2022/03/03 07:30:16;;;;;;;;;59.33;46.33;;;;;10.40;100.00;101240.50;4943487;28;47409;-90
2022/03/03 07:32:52;;;;;;;;;61.33;47.00;;;;;10.42;100.00;101250.09;4944078;28;44733;-91
2022/03/03 07:35:20;;;;;;;;;61.33;48.00;;;;;10.46;100.00;101246.31;4960502;28;45182;-91
2022/03/03 07:38:15;;;;;;;;;57.67;45.33;;;;;10.53;100.00;101244.16;4959734;28;44894;-92
2022/03/03 07:40:49;;;;;;;;;58.33;43.00;;;;;10.63;100.00;101240.00;4963715;28;45305;-91
2022/03/03 07:43:26;;;;;;;;;56.33;44.00;;;;;10.69;100.00;101238.81;4944372;28;44796;-91
2022/03/03 07:45:52;;;;;;;;;57.33;46.67;;;;;10.73;100.00;101240.31;4945579;28;45261;-90
2022/03/03 07:48:22;;;;;;;;;54.00;41.67;;;;;10.77;100.00;101245.34;4961921;28;44926;-91
2022/03/03 07:50:48;;;;;;;;;58.67;45.00;;;;;10.82;100.00;101250.38;4967052;28;45256;-91
2022/03/03 07:53:16;;;;;;;;;56.67;44.67;;;;;10.87;100.00;101237.69;4954620;28;44953;-91
2022/03/03 07:55:44;;;;;;;;;62.00;46.33;;;;;10.91;100.00;101241.88;4970439;28;45157;-91
2022/03/03 07:58:35;;;;;;;;;56.67;45.00;;;;;10.93;100.00;101241.81;4949328;28;44948;-92
2022/03/03 08:01:03;;;;;;;;;55.33;44.00;;;;;10.96;100.00;101237.13;4956221;28;45300;-90
2022/03/03 08:03:30;;;;;;;;;52.00;42.67;;;;;11.04;100.00;101239.34;4968511;28;44768;-92
2022/03/03 08:05:57;;;;;;;;;59.33;45.00;;;;;11.07;100.00;101234.69;4966408;28;44727;-89
2022/03/03 08:08:27;;;;;;;;;59.33;45.00;;;;;11.18;100.00;101236.69;4966038;28;44859;-90
2022/03/03 08:11:03;;;;;;;;;59.67;46.00;;;;;11.29;100.00;101236.03;4947453;28;46658;-90
2022/03/03 08:13:34;;;;;;;;;61.33;47.67;;;;;11.30;100.00;101233.25;4947241;28;44820;-92
2022/03/03 08:16:00;;;;;;;;;54.67;44.00;;;;;11.32;100.00;101239.34;4945816;28;44632;-91
2022/03/03 08:18:35;;;;;;;;;54.67;44.00;;;;;11.34;100.00;101231.28;4945283;28;45520;-90
2022/03/03 08:21:03;;;;;;;;;55.33;45.00;;;;;11.38;100.00;101223.97;4929051;28;45415;-91
2022/03/03 08:23:42;;;;;;;;;59.33;45.00;;;;;11.45;100.00;101231.44;4949062;28;44838;-93
2022/03/03 08:26:12;;;;;;;;;56.67;45.00;;;;;11.48;100.00;101223.28;4971258;28;44653;-89
2022/03/03 08:28:41;;;;;;;;;57.67;46.00;;;;;11.55;100.00;101229.06;4969293;28;44818;-90
2022/03/03 08:31:08;;;;;;;;;59.33;47.00;;;;;11.63;100.00;101221.44;4969296;28;45207;-90
2022/03/03 08:34:06;;;;;;;;;61.33;45.67;;;;;11.72;100.00;101220.88;4951191;28;44789;-90
2022/03/03 08:36:55;;;;;;;;;54.67;43.67;;;;;11.82;100.00;101224.69;4947491;28;44812;-91
2022/03/03 08:39:28;;;;;;;;;58.67;45.00;;;;;11.84;100.00;101219.25;4967205;28;44958;-91
2022/03/03 08:42:02;;;;;;;;;55.00;43.00;;;;;11.91;100.00;101214.41;4944316;28;45463;-89
2022/03/03 08:44:38;;;;;;;;;52.33;42.00;;;;;12.02;100.00;101218.06;4964014;28;44815;-88
2022/03/03 08:47:06;;;;;;;;;56.00;44.00;;;;;12.13;100.00;101220.00;4958415;28;45321;-91
2022/03/03 08:49:37;;;;;;;;;50.67;43.33;;;;;12.23;100.00;101231.81;4951662;28;44880;-90
2022/03/03 08:52:04;;;;;;;;;52.33;41.67;;;;;12.34;100.00;101231.09;4963423;28;45388;-90
2022/03/03 08:54:30;;;;;;;;;53.67;43.00;;;;;12.35;100.00;101230.97;4950696;28;44815;-88
2022/03/03 08:56:56;;;;;;;;;56.33;44.67;;;;;12.40;100.00;101232.47;4963050;28;45497;-87
2022/03/03 08:59:21;;;;;;;;;54.00;45.00;;;;;12.46;100.00;101230.25;4963555;28;45496;-90
2022/03/03 09:01:49;;;;;;;;;55.67;44.33;;;;;12.46;100.00;101224.91;4963750;28;45191;-92
2022/03/03 09:04:14;;;;;;;;;60.67;46.00;;;;;12.50;100.00;101231.75;4981287;28;44788;-89
2022/03/03 09:06:40;;;;;;;;;56.33;44.00;;;;;12.57;100.00;101235.72;4979634;28;44684;-89
2022/03/03 09:09:45;;;;;;;;;55.00;44.00;;;;;12.63;100.00;101237.13;4979028;28;44915;-94
2022/03/03 09:12:16;;;;;;;;;57.00;46.00;;;;;12.66;100.00;101234.22;4975775;28;45436;-93
2022/03/03 09:14:50;;;;;;;;;58.67;45.00;;;;;12.70;100.00;101232.22;4941418;28;44638;-94
2022/03/03 09:17:33;;;;;;;;;60.33;47.00;;;;;12.78;100.00;101230.75;4968599;28;44638;-91
2022/03/03 09:20:34;;;;;;;;;56.33;45.33;;;;;12.86;100.00;101228.41;4976074;28;44863;-92
2022/03/03 09:23:04;;;;;;;;;59.00;45.67;;;;;12.90;100.00;101229.03;4964736;28;45384;-90
2022/03/03 09:25:30;;;;;;;;;60.33;45.33;;;;;12.86;100.00;101232.88;4970126;28;45386;-90
2022/03/03 09:28:02;;;;;;;;;57.00;44.00;;;;;12.89;100.00;101235.34;4955664;28;44727;-95
2022/03/03 09:34:10;;;;;;;;;58.67;46.00;;;;;12.83;100.00;101235.78;4913699;28;45334;-92
2022/03/03 09:36:40;;;;;;;;;55.00;42.67;;;;;12.85;100.00;101241.84;4885510;29;44911;-90
2022/03/03 09:39:06;;;;;;;;;54.00;42.67;;;;;12.88;100.00;101233.63;4885669;29;44691;-91
2022/03/03 09:41:34;;;;;;;;;57.33;44.00;;;;;12.98;100.00;101231.19;4887347;29;44902;-92
2022/03/03 09:44:03;;;;;;;;;64.33;48.33;;;;;13.08;100.00;101234.94;4908267;29;45620;-91
2022/03/03 09:46:29;;;;;;;;;54.00;44.33;;;;;13.17;100.00;101236.97;4911831;29;45321;-90
2022/03/03 09:48:55;;;;;;;;;59.00;45.33;;;;;13.28;100.00;101228.22;4898163;29;44672;-89
2022/03/03 09:51:20;;;;;;;;;52.33;44.33;;;;;13.31;100.00;101231.53;4895224;29;44721;-88
2022/03/03 09:53:52;;;;;;;;;59.33;45.33;;;;;13.34;100.00;101226.00;4908133;29;45351;-89
2022/03/03 09:56:18;;;;;;;;;57.67;45.67;;;;;13.43;100.00;101234.28;4890382;29;44836;-91
2022/03/03 09:58:43;;;;;;;;;59.33;49.33;;;;;13.55;100.00;101228.09;4889254;29;45380;-90
2022/03/03 10:01:09;;;;;;;;;58.33;45.67;;;;;13.65;100.00;101226.47;4891551;29;44885;-92
2022/03/03 10:03:36;;;;;;;;;55.33;44.00;;;;;13.75;100.00;101232.00;4897419;29;45212;-90
2022/03/03 10:06:04;;;;;;;;;62.67;51.67;;;;;13.86;100.00;101232.06;4898515;29;44650;-89
2022/03/03 10:08:31;;;;;;;;;66.33;53.33;;;;;13.95;100.00;101233.22;4895045;29;44916;-90
2022/03/03 10:10:58;;;;;;;;;63.00;48.33;;;;;13.91;100.00;101231.72;4901376;28;45009;-89
2022/03/03 10:13:24;;;;;;;;;64.67;49.67;;;;;14.01;100.00;101230.94;4975055;28;45549;-91
2022/03/03 10:16:05;;;;;;;;;63.00;49.33;;;;;14.10;100.00;101232.94;4969277;28;44750;-90
2022/03/03 10:18:33;;;;;;;;;58.33;46.67;;;;;14.21;100.00;101223.25;4968641;28;44872;-90
2022/03/03 10:21:03;;;;;;;;;62.00;47.67;;;;;14.30;100.00;101222.59;4964915;28;44838;-89
2022/03/03 10:23:48;;;;;;;;;58.33;47.33;;;;;14.36;100.00;101220.31;4963285;28;45076;-91
2022/03/03 10:26:14;;;;;;;;;63.00;48.67;;;;;14.43;100.00;101220.69;4963160;28;44724;-91
2022/03/03 10:28:40;;;;;;;;;58.33;48.67;;;;;14.35;100.00;101215.91;4947018;28;44803;-91
2022/03/03 10:31:16;;;;;;;;;65.67;51.00;;;;;14.26;100.00;101221.09;4985578;28;44739;-90
2022/03/03 10:33:50;;;;;;;;;62.67;50.00;;;;;14.19;100.00;101215.38;4970208;28;45418;-88
2022/03/03 10:36:26;;;;;;;;;61.00;49.67;;;;;14.13;100.00;101208.66;4985486;28;44661;-90
2022/03/03 10:38:57;;;;;;;;;61.67;47.00;;;;;14.00;100.00;101217.69;4965854;28;44965;-90
2022/03/03 10:41:44;;;;;;;;;57.33;49.00;;;;;13.93;100.00;101216.47;4985864;28;44937;-89
2022/03/03 10:44:21;;;;;;;;;65.33;51.00;;;;;13.84;100.00;101218.84;4970397;28;45636;-88
2022/03/03 10:47:07;;;;;;;;;66.33;51.67;;;;;13.73;100.00;101216.09;4953477;28;44884;-89
2022/03/03 10:49:38;;;;;;;;;61.33;48.67;;;;;13.77;100.00;101214.03;4967432;28;44796;-87
2022/03/03 10:52:19;;;;;;;;;62.33;50.00;;;;;13.79;100.00;101209.47;4965288;28;44939;-91
2022/03/03 10:54:51;;;;;;;;;58.00;46.00;;;;;13.86;100.00;101224.06;4947246;28;46825;-90
2022/03/03 10:57:45;;;;;;;;;59.33;46.33;;;;;13.80;100.00;101220.00;4959493;28;44859;-91
2022/03/03 11:00:45;;;;;;;;;57.33;47.00;;;;;13.85;100.00;101214.34;4964024;28;44823;-90
2022/03/03 11:03:11;;;;;;;;;52.00;43.00;;;;;13.81;100.00;101208.34;4952942;28;44883;-91
2022/03/03 11:05:36;;;;;;;;;56.00;47.00;;;;;13.78;100.00;101205.94;4959487;28;46702;-91
2022/03/03 11:08:02;;;;;;;;;56.67;44.00;;;;;13.82;100.00;101212.72;4978778;28;45168;-91
2022/03/03 11:10:31;;;;;;;;;56.33;44.67;;;;;13.82;100.00;101206.53;4978300;28;44823;-91
2022/03/03 11:12:57;;;;;;;;;50.67;41.33;;;;;13.91;100.00;101213.03;4970453;28;44878;-90
2022/03/03 11:15:24;;;;;;;;;48.33;40.00;;;;;13.91;100.00;101205.03;4965469;28;46761;-88
2022/03/03 11:17:50;;;;;;;;;58.33;46.00;;;;;14.00;100.00;101196.34;4966999;28;45525;-87
2022/03/03 11:20:18;;;;;;;;;57.67;44.00;;;;;14.02;100.00;101205.94;4965870;28;44823;-87